sensor_id;sensor_type;location;lat;lon;timestamp;temperature;humidity
59025;DHT22;44806;48.008;13.666;2022-10-31T00:00:36;11.00;99.90
59025;DHT22;44806;48.008;13.666;2022-10-31T00:03:15;11.00;99.90
59025;DHT22;44806;48.008;13.666;2022-10-31T00:06:01;11.00;99.90
59025;DHT22;44806;48.008;13.666;2022-10-31T00:08:43;10.90;99.90
59025;DHT22;44806;48.008;13.666;2022-10-31T00:11:24;11.00;99.90
59025;DHT22;44806;48.008;13.666;2022-10-31T00:13:59;11.00;99.90
59025;DHT22;44806;48.008;13.666;2022-10-31T00:16:40;11.00;99.90
59025;DHT22;44806;48.008;13.666;2022-10-31T00:19:19;11.00;99.90
59025;DHT22;44806;48.008;13.666;2022-10-31T00:21:55;11.00;99.90
59025;DHT22;44806;48.008;13.666;2022-10-31T00:24:33;11.00;99.90
59025;DHT22;44806;48.008;13.666;2022-10-31T00:27:12;11.00;99.90
59025;DHT22;44806;48.008;13.666;2022-10-31T00:29:52;11.00;99.90
59025;DHT22;44806;48.008;13.666;2022-10-31T00:32:32;10.90;99.90
59025;DHT22;44806;48.008;13.666;2022-10-31T00:35:06;10.90;99.90
59025;DHT22;44806;48.008;13.666;2022-10-31T00:37:48;10.90;99.90
59025;DHT22;44806;48.008;13.666;2022-10-31T00:40:24;10.90;99.90
59025;DHT22;44806;48.008;13.666;2022-10-31T00:42:59;10.90;99.90
59025;DHT22;44806;48.008;13.666;2022-10-31T00:45:27;10.90;99.90
59025;DHT22;44806;48.008;13.666;2022-10-31T00:47:59;10.90;99.90
59025;DHT22;44806;48.008;13.666;2022-10-31T00:50:42;10.90;99.90
59025;DHT22;44806;48.008;13.666;2022-10-31T00:53:19;10.90;99.90
59025;DHT22;44806;48.008;13.666;2022-10-31T00:55:52;10.90;99.90
59025;DHT22;44806;48.008;13.666;2022-10-31T00:58:33;10.80;99.90
59025;DHT22;44806;48.008;13.666;2022-10-31T01:01:09;10.70;99.90
59025;DHT22;44806;48.008;13.666;2022-10-31T01:03:55;10.70;99.90
59025;DHT22;44806;48.008;13.666;2022-10-31T01:06:34;10.70;99.90
59025;DHT22;44806;48.008;13.666;2022-10-31T01:09:08;10.60;99.90
59025;DHT22;44806;48.008;13.666;2022-10-31T01:11:45;10.70;99.90
59025;DHT22;44806;48.008;13.666;2022-10-31T01:14:25;10.70;99.90
59025;DHT22;44806;48.008;13.666;2022-10-31T01:17:07;10.70;99.90
59025;DHT22;44806;48.008;13.666;2022-10-31T01:19:41;10.60;99.90
59025;DHT22;44806;48.008;13.666;2022-10-31T01:22:22;10.60;99.90
59025;DHT22;44806;48.008;13.666;2022-10-31T01:25:07;10.60;99.90
59025;DHT22;44806;48.008;13.666;2022-10-31T01:27:41;10.60;99.90
59025;DHT22;44806;48.008;13.666;2022-10-31T01:30:23;10.50;99.90
59025;DHT22;44806;48.008;13.666;2022-10-31T01:32:59;10.50;99.90
59025;DHT22;44806;48.008;13.666;2022-10-31T01:35:33;10.50;99.90
59025;DHT22;44806;48.008;13.666;2022-10-31T01:38:13;10.50;99.90
59025;DHT22;44806;48.008;13.666;2022-10-31T01:40:42;10.50;99.90
59025;DHT22;44806;48.008;13.666;2022-10-31T01:43:13;10.50;99.90
59025;DHT22;44806;48.008;13.666;2022-10-31T01:45:52;10.50;99.90
59025;DHT22;44806;48.008;13.666;2022-10-31T01:48:30;10.50;99.90
59025;DHT22;44806;48.008;13.666;2022-10-31T01:51:02;10.50;99.90
59025;DHT22;44806;48.008;13.666;2022-10-31T01:53:39;10.50;99.90
59025;DHT22;44806;48.008;13.666;2022-10-31T01:56:22;10.50;99.90
59025;DHT22;44806;48.008;13.666;2022-10-31T01:59:01;10.40;99.90
59025;DHT22;44806;48.008;13.666;2022-10-31T02:01:51;10.40;99.90
59025;DHT22;44806;48.008;13.666;2022-10-31T02:04:26;10.40;99.90
59025;DHT22;44806;48.008;13.666;2022-10-31T02:07:05;10.40;99.90
59025;DHT22;44806;48.008;13.666;2022-10-31T02:09:43;10.40;99.90
59025;DHT22;44806;48.008;13.666;2022-10-31T02:12:16;10.40;99.90
59025;DHT22;44806;48.008;13.666;2022-10-31T02:15:03;10.40;99.90
59025;DHT22;44806;48.008;13.666;2022-10-31T02:17:43;10.30;99.90
59025;DHT22;44806;48.008;13.666;2022-10-31T02:20:23;10.30;99.90
59025;DHT22;44806;48.008;13.666;2022-10-31T02:29:34;10.20;99.90
59025;DHT22;44806;48.008;13.666;2022-10-31T02:32:29;10.20;99.90
59025;DHT22;44806;48.008;13.666;2022-10-31T02:35:20;10.20;99.90
59025;DHT22;44806;48.008;13.666;2022-10-31T02:38:19;10.20;99.90
59025;DHT22;44806;48.008;13.666;2022-10-31T02:41:09;10.10;99.90
59025;DHT22;44806;48.008;13.666;2022-10-31T02:43:58;10.10;99.90
59025;DHT22;44806;48.008;13.666;2022-10-31T02:46:37;10.10;99.90
59025;DHT22;44806;48.008;13.666;2022-10-31T02:49:23;10.00;99.90
59025;DHT22;44806;48.008;13.666;2022-10-31T02:52:18;10.10;99.90
59025;DHT22;44806;48.008;13.666;2022-10-31T02:54:54;10.00;99.90
59025;DHT22;44806;48.008;13.666;2022-10-31T02:57:32;10.00;99.90
59025;DHT22;44806;48.008;13.666;2022-10-31T03:00:13;10.00;99.90
59025;DHT22;44806;48.008;13.666;2022-10-31T03:02:56;9.90;99.90
59025;DHT22;44806;48.008;13.666;2022-10-31T03:08:31;9.90;99.90
59025;DHT22;44806;48.008;13.666;2022-10-31T03:11:20;9.90;99.90
59025;DHT22;44806;48.008;13.666;2022-10-31T03:14:04;9.90;99.90
59025;DHT22;44806;48.008;13.666;2022-10-31T03:16:46;9.80;99.90
59025;DHT22;44806;48.008;13.666;2022-10-31T03:19:27;9.80;99.90
59025;DHT22;44806;48.008;13.666;2022-10-31T03:22:04;9.80;99.90
59025;DHT22;44806;48.008;13.666;2022-10-31T03:24:47;9.80;99.90
59025;DHT22;44806;48.008;13.666;2022-10-31T03:27:24;9.70;99.90
59025;DHT22;44806;48.008;13.666;2022-10-31T03:30:05;9.80;99.90
59025;DHT22;44806;48.008;13.666;2022-10-31T03:32:43;9.70;99.90
59025;DHT22;44806;48.008;13.666;2022-10-31T03:35:27;9.60;99.90
59025;DHT22;44806;48.008;13.666;2022-10-31T03:38:14;9.60;99.90
59025;DHT22;44806;48.008;13.666;2022-10-31T03:40:52;9.60;99.90
59025;DHT22;44806;48.008;13.666;2022-10-31T03:43:32;9.60;99.90
59025;DHT22;44806;48.008;13.666;2022-10-31T03:46:14;9.60;99.90
59025;DHT22;44806;48.008;13.666;2022-10-31T03:48:50;9.60;99.90
59025;DHT22;44806;48.008;13.666;2022-10-31T03:51:29;9.60;99.90
59025;DHT22;44806;48.008;13.666;2022-10-31T03:54:12;9.60;99.90
59025;DHT22;44806;48.008;13.666;2022-10-31T03:56:57;9.60;99.90
59025;DHT22;44806;48.008;13.666;2022-10-31T03:59:51;9.50;99.90
59025;DHT22;44806;48.008;13.666;2022-10-31T04:02:46;9.50;99.90
59025;DHT22;44806;48.008;13.666;2022-10-31T04:05:27;9.50;99.90
59025;DHT22;44806;48.008;13.666;2022-10-31T04:08:09;9.50;99.90
59025;DHT22;44806;48.008;13.666;2022-10-31T04:10:51;9.40;99.90
59025;DHT22;44806;48.008;13.666;2022-10-31T04:13:38;9.40;99.90
59025;DHT22;44806;48.008;13.666;2022-10-31T04:16:16;9.40;99.90
59025;DHT22;44806;48.008;13.666;2022-10-31T04:18:45;9.40;99.90
59025;DHT22;44806;48.008;13.666;2022-10-31T04:21:17;9.40;99.90
59025;DHT22;44806;48.008;13.666;2022-10-31T04:23:57;9.30;99.90
59025;DHT22;44806;48.008;13.666;2022-10-31T04:26:32;9.30;99.90
59025;DHT22;44806;48.008;13.666;2022-10-31T04:29:04;9.20;99.90
59025;DHT22;44806;48.008;13.666;2022-10-31T04:31:37;9.20;99.90
59025;DHT22;44806;48.008;13.666;2022-10-31T04:34:16;9.20;99.90
59025;DHT22;44806;48.008;13.666;2022-10-31T04:36:57;9.20;99.90
59025;DHT22;44806;48.008;13.666;2022-10-31T04:39:33;9.20;99.90
59025;DHT22;44806;48.008;13.666;2022-10-31T05:09:13;9.00;99.90
59025;DHT22;44806;48.008;13.666;2022-10-31T05:11:52;9.00;99.90
59025;DHT22;44806;48.008;13.666;2022-10-31T05:14:32;9.00;99.90
59025;DHT22;44806;48.008;13.666;2022-10-31T05:17:05;9.00;99.90
59025;DHT22;44806;48.008;13.666;2022-10-31T05:19:38;9.00;99.90
59025;DHT22;44806;48.008;13.666;2022-10-31T05:22:18;9.00;99.90
59025;DHT22;44806;48.008;13.666;2022-10-31T05:24:52;9.00;99.90
59025;DHT22;44806;48.008;13.666;2022-10-31T05:27:25;9.00;99.90
59025;DHT22;44806;48.008;13.666;2022-10-31T05:30:01;9.00;99.90
59025;DHT22;44806;48.008;13.666;2022-10-31T05:32:45;9.00;99.90
59025;DHT22;44806;48.008;13.666;2022-10-31T05:35:19;9.00;99.90
59025;DHT22;44806;48.008;13.666;2022-10-31T05:38:04;8.90;99.90
59025;DHT22;44806;48.008;13.666;2022-10-31T05:40:34;8.90;99.90
59025;DHT22;44806;48.008;13.666;2022-10-31T05:43:09;8.90;99.90
59025;DHT22;44806;48.008;13.666;2022-10-31T05:45:51;8.90;99.90
59025;DHT22;44806;48.008;13.666;2022-10-31T05:48:30;8.80;99.90
59025;DHT22;44806;48.008;13.666;2022-10-31T05:51:07;8.70;99.90
59025;DHT22;44806;48.008;13.666;2022-10-31T05:53:52;8.70;99.90
59025;DHT22;44806;48.008;13.666;2022-10-31T05:56:38;8.70;99.90
59025;DHT22;44806;48.008;13.666;2022-10-31T05:59:11;8.80;99.90
59025;DHT22;44806;48.008;13.666;2022-10-31T06:01:57;8.70;99.90
59025;DHT22;44806;48.008;13.666;2022-10-31T06:04:37;8.80;99.90
59025;DHT22;44806;48.008;13.666;2022-10-31T06:07:23;8.80;99.90
59025;DHT22;44806;48.008;13.666;2022-10-31T06:10:00;8.80;99.90
59025;DHT22;44806;48.008;13.666;2022-10-31T06:12:34;8.80;99.90
59025;DHT22;44806;48.008;13.666;2022-10-31T06:15:11;8.80;99.90
59025;DHT22;44806;48.008;13.666;2022-10-31T06:17:58;8.80;99.90
59025;DHT22;44806;48.008;13.666;2022-10-31T06:27:30;8.80;99.90
59025;DHT22;44806;48.008;13.666;2022-10-31T06:30:12;8.80;99.90
59025;DHT22;44806;48.008;13.666;2022-10-31T06:32:50;8.80;99.90
59025;DHT22;44806;48.008;13.666;2022-10-31T06:35:39;8.80;99.90
59025;DHT22;44806;48.008;13.666;2022-10-31T06:38:15;8.80;99.90
59025;DHT22;44806;48.008;13.666;2022-10-31T06:40:52;8.80;99.90
59025;DHT22;44806;48.008;13.666;2022-10-31T06:43:38;8.80;99.90
59025;DHT22;44806;48.008;13.666;2022-10-31T06:46:09;8.90;99.90
59025;DHT22;44806;48.008;13.666;2022-10-31T06:48:40;8.90;99.90
59025;DHT22;44806;48.008;13.666;2022-10-31T06:51:13;8.90;99.90
59025;DHT22;44806;48.008;13.666;2022-10-31T06:54:01;8.90;99.90
59025;DHT22;44806;48.008;13.666;2022-10-31T07:21:14;9.10;99.90
59025;DHT22;44806;48.008;13.666;2022-10-31T07:23:51;9.20;99.90
59025;DHT22;44806;48.008;13.666;2022-10-31T07:26:28;9.20;99.90
59025;DHT22;44806;48.008;13.666;2022-10-31T07:29:08;9.20;99.90
59025;DHT22;44806;48.008;13.666;2022-10-31T07:31:44;9.20;99.90
59025;DHT22;44806;48.008;13.666;2022-10-31T07:34:23;9.30;99.90
59025;DHT22;44806;48.008;13.666;2022-10-31T07:36:55;9.40;99.90
59025;DHT22;44806;48.008;13.666;2022-10-31T07:39:40;9.40;99.90
59025;DHT22;44806;48.008;13.666;2022-10-31T07:42:18;9.50;99.90
59025;DHT22;44806;48.008;13.666;2022-10-31T07:44:54;9.50;99.90
59025;DHT22;44806;48.008;13.666;2022-10-31T07:47:27;9.60;99.90
59025;DHT22;44806;48.008;13.666;2022-10-31T07:50:19;9.70;99.90
59025;DHT22;44806;48.008;13.666;2022-10-31T07:53:04;9.70;99.90
59025;DHT22;44806;48.008;13.666;2022-10-31T07:55:41;9.80;99.90
59025;DHT22;44806;48.008;13.666;2022-10-31T07:58:16;9.90;99.90
59025;DHT22;44806;48.008;13.666;2022-10-31T08:00:51;10.00;99.90
59025;DHT22;44806;48.008;13.666;2022-10-31T08:03:39;10.00;99.90
59025;DHT22;44806;48.008;13.666;2022-10-31T08:06:19;10.10;99.90
59025;DHT22;44806;48.008;13.666;2022-10-31T08:09:05;10.30;99.90
59025;DHT22;44806;48.008;13.666;2022-10-31T08:11:49;10.30;99.90
59025;DHT22;44806;48.008;13.666;2022-10-31T08:14:31;10.40;99.90
59025;DHT22;44806;48.008;13.666;2022-10-31T08:17:04;10.50;99.90
59025;DHT22;44806;48.008;13.666;2022-10-31T08:19:41;10.70;99.90
59025;DHT22;44806;48.008;13.666;2022-10-31T08:22:16;10.70;99.90
59025;DHT22;44806;48.008;13.666;2022-10-31T08:24:52;10.90;99.90
59025;DHT22;44806;48.008;13.666;2022-10-31T08:27:37;10.90;99.90
59025;DHT22;44806;48.008;13.666;2022-10-31T08:30:09;11.10;99.90
59025;DHT22;44806;48.008;13.666;2022-10-31T08:32:56;11.10;99.90
59025;DHT22;44806;48.008;13.666;2022-10-31T08:35:38;11.20;99.90
59025;DHT22;44806;48.008;13.666;2022-10-31T08:38:16;11.30;99.90
59025;DHT22;44806;48.008;13.666;2022-10-31T08:40:48;11.50;99.90
59025;DHT22;44806;48.008;13.666;2022-10-31T08:43:24;11.50;99.90
59025;DHT22;44806;48.008;13.666;2022-10-31T08:46:05;11.60;99.90
59025;DHT22;44806;48.008;13.666;2022-10-31T08:48:45;11.60;99.90
59025;DHT22;44806;48.008;13.666;2022-10-31T08:51:19;11.80;99.90
59025;DHT22;44806;48.008;13.666;2022-10-31T08:53:50;11.90;99.90
59025;DHT22;44806;48.008;13.666;2022-10-31T08:56:30;11.90;99.90
59025;DHT22;44806;48.008;13.666;2022-10-31T08:59:04;12.00;99.90
59025;DHT22;44806;48.008;13.666;2022-10-31T09:01:43;12.10;99.90
59025;DHT22;44806;48.008;13.666;2022-10-31T09:04:27;12.10;99.90
59025;DHT22;44806;48.008;13.666;2022-10-31T09:07:12;12.20;99.90
59025;DHT22;44806;48.008;13.666;2022-10-31T09:09:52;12.20;99.90
59025;DHT22;44806;48.008;13.666;2022-10-31T09:12:33;12.30;99.90
59025;DHT22;44806;48.008;13.666;2022-10-31T09:15:16;12.40;99.90
59025;DHT22;44806;48.008;13.666;2022-10-31T09:17:58;12.50;99.90
59025;DHT22;44806;48.008;13.666;2022-10-31T09:20:38;12.70;99.90
59025;DHT22;44806;48.008;13.666;2022-10-31T09:23:15;12.70;99.90
59025;DHT22;44806;48.008;13.666;2022-10-31T09:25:53;12.80;99.90
59025;DHT22;44806;48.008;13.666;2022-10-31T09:28:35;12.80;99.90
59025;DHT22;44806;48.008;13.666;2022-10-31T09:31:13;13.00;99.90
59025;DHT22;44806;48.008;13.666;2022-10-31T09:33:51;13.00;99.90
59025;DHT22;44806;48.008;13.666;2022-10-31T09:36:25;13.10;99.90
59025;DHT22;44806;48.008;13.666;2022-10-31T09:39:02;13.10;99.90
59025;DHT22;44806;48.008;13.666;2022-10-31T09:41:49;13.20;99.90
59025;DHT22;44806;48.008;13.666;2022-10-31T09:44:46;13.30;99.90
59025;DHT22;44806;48.008;13.666;2022-10-31T09:47:39;13.40;99.90
59025;DHT22;44806;48.008;13.666;2022-10-31T09:50:28;13.50;99.90
59025;DHT22;44806;48.008;13.666;2022-10-31T09:53:14;13.60;99.90
59025;DHT22;44806;48.008;13.666;2022-10-31T09:55:57;13.80;99.90
59025;DHT22;44806;48.008;13.666;2022-10-31T09:58:42;13.80;99.90
59025;DHT22;44806;48.008;13.666;2022-10-31T10:01:45;13.90;99.90
59025;DHT22;44806;48.008;13.666;2022-10-31T10:04:37;14.00;99.90
59025;DHT22;44806;48.008;13.666;2022-10-31T10:07:19;14.20;99.90
59025;DHT22;44806;48.008;13.666;2022-10-31T10:10:08;14.20;99.90
59025;DHT22;44806;48.008;13.666;2022-10-31T10:13:17;14.40;99.90
59025;DHT22;44806;48.008;13.666;2022-10-31T10:16:17;14.50;99.90
59025;DHT22;44806;48.008;13.666;2022-10-31T10:19:25;14.60;99.90
59025;DHT22;44806;48.008;13.666;2022-10-31T10:22:10;14.70;99.90
59025;DHT22;44806;48.008;13.666;2022-10-31T10:24:58;14.80;99.90
59025;DHT22;44806;48.008;13.666;2022-10-31T10:27:55;14.90;99.90
59025;DHT22;44806;48.008;13.666;2022-10-31T10:30:45;15.10;99.90
59025;DHT22;44806;48.008;13.666;2022-10-31T10:33:27;15.10;99.90
59025;DHT22;44806;48.008;13.666;2022-10-31T10:36:09;15.20;99.90
59025;DHT22;44806;48.008;13.666;2022-10-31T10:38:52;15.20;99.90
59025;DHT22;44806;48.008;13.666;2022-10-31T10:41:29;15.20;99.90
59025;DHT22;44806;48.008;13.666;2022-10-31T10:44:09;15.30;99.90
59025;DHT22;44806;48.008;13.666;2022-10-31T10:46:53;15.40;99.90
59025;DHT22;44806;48.008;13.666;2022-10-31T10:49:53;15.50;99.90
59025;DHT22;44806;48.008;13.666;2022-10-31T10:52:31;15.70;99.90
59025;DHT22;44806;48.008;13.666;2022-10-31T10:55:21;15.80;99.90
59025;DHT22;44806;48.008;13.666;2022-10-31T10:57:57;15.80;99.90
59025;DHT22;44806;48.008;13.666;2022-10-31T11:00:29;15.90;99.90
59025;DHT22;44806;48.008;13.666;2022-10-31T11:03:00;16.00;99.90
59025;DHT22;44806;48.008;13.666;2022-10-31T11:05:41;16.10;99.90
59025;DHT22;44806;48.008;13.666;2022-10-31T11:15:05;16.40;99.90
59025;DHT22;44806;48.008;13.666;2022-10-31T11:17:46;16.40;99.90
59025;DHT22;44806;48.008;13.666;2022-10-31T11:20:32;16.40;99.90
59025;DHT22;44806;48.008;13.666;2022-10-31T11:23:18;16.50;99.90
59025;DHT22;44806;48.008;13.666;2022-10-31T11:25:50;16.60;99.90
59025;DHT22;44806;48.008;13.666;2022-10-31T11:28:28;16.60;99.90
59025;DHT22;44806;48.008;13.666;2022-10-31T11:31:14;16.60;99.90
59025;DHT22;44806;48.008;13.666;2022-10-31T11:33:59;16.60;99.90
59025;DHT22;44806;48.008;13.666;2022-10-31T11:36:43;16.70;99.90
59025;DHT22;44806;48.008;13.666;2022-10-31T11:39:22;16.70;99.90
59025;DHT22;44806;48.008;13.666;2022-10-31T11:42:02;16.70;99.90
59025;DHT22;44806;48.008;13.666;2022-10-31T11:44:44;16.80;99.90
59025;DHT22;44806;48.008;13.666;2022-10-31T11:47:31;16.90;99.90
59025;DHT22;44806;48.008;13.666;2022-10-31T11:50:09;16.90;99.90
59025;DHT22;44806;48.008;13.666;2022-10-31T11:52:41;16.90;99.90
59025;DHT22;44806;48.008;13.666;2022-10-31T11:55:31;17.00;99.90
59025;DHT22;44806;48.008;13.666;2022-10-31T11:58:23;17.00;99.90
59025;DHT22;44806;48.008;13.666;2022-10-31T12:00:54;17.00;99.90
59025;DHT22;44806;48.008;13.666;2022-10-31T12:03:48;17.00;99.90
59025;DHT22;44806;48.008;13.666;2022-10-31T12:06:34;17.10;99.90
59025;DHT22;44806;48.008;13.666;2022-10-31T12:09:24;17.10;99.90
59025;DHT22;44806;48.008;13.666;2022-10-31T12:12:10;17.10;99.90
59025;DHT22;44806;48.008;13.666;2022-10-31T12:14:50;17.10;99.90
59025;DHT22;44806;48.008;13.666;2022-10-31T12:17:35;17.10;99.90
59025;DHT22;44806;48.008;13.666;2022-10-31T12:20:23;17.20;99.90
59025;DHT22;44806;48.008;13.666;2022-10-31T12:23:06;17.20;99.90
59025;DHT22;44806;48.008;13.666;2022-10-31T12:25:50;17.20;99.90
59025;DHT22;44806;48.008;13.666;2022-10-31T12:28:41;17.30;99.90
59025;DHT22;44806;48.008;13.666;2022-10-31T12:31:24;17.30;99.90
59025;DHT22;44806;48.008;13.666;2022-10-31T12:34:02;17.40;99.90
59025;DHT22;44806;48.008;13.666;2022-10-31T12:36:47;17.30;99.90
59025;DHT22;44806;48.008;13.666;2022-10-31T12:39:40;17.30;99.90
59025;DHT22;44806;48.008;13.666;2022-10-31T12:42:22;17.30;99.90
59025;DHT22;44806;48.008;13.666;2022-10-31T12:45:13;17.40;99.90
59025;DHT22;44806;48.008;13.666;2022-10-31T12:48:13;17.30;99.90
59025;DHT22;44806;48.008;13.666;2022-10-31T12:50:54;17.40;99.90
59025;DHT22;44806;48.008;13.666;2022-10-31T12:53:41;17.40;99.90
59025;DHT22;44806;48.008;13.666;2022-10-31T12:56:29;17.30;99.90
59025;DHT22;44806;48.008;13.666;2022-10-31T12:59:04;17.30;99.90
59025;DHT22;44806;48.008;13.666;2022-10-31T13:02:00;17.30;99.90
59025;DHT22;44806;48.008;13.666;2022-10-31T13:04:40;17.40;99.90
59025;DHT22;44806;48.008;13.666;2022-10-31T13:07:21;17.40;99.90
59025;DHT22;44806;48.008;13.666;2022-10-31T13:10:03;17.40;99.90
59025;DHT22;44806;48.008;13.666;2022-10-31T13:12:37;17.30;99.90
59025;DHT22;44806;48.008;13.666;2022-10-31T13:15:20;17.40;99.90
59025;DHT22;44806;48.008;13.666;2022-10-31T13:18:02;17.40;99.90
59025;DHT22;44806;48.008;13.666;2022-10-31T13:20:32;17.40;99.90
59025;DHT22;44806;48.008;13.666;2022-10-31T13:23:10;17.50;99.90
59025;DHT22;44806;48.008;13.666;2022-10-31T13:25:47;17.50;99.90
59025;DHT22;44806;48.008;13.666;2022-10-31T13:28:31;17.50;99.90
59025;DHT22;44806;48.008;13.666;2022-10-31T13:31:03;17.50;99.90
59025;DHT22;44806;48.008;13.666;2022-10-31T13:33:38;17.40;99.90
59025;DHT22;44806;48.008;13.666;2022-10-31T13:36:19;17.50;99.90
59025;DHT22;44806;48.008;13.666;2022-10-31T13:39:15;17.50;99.90
59025;DHT22;44806;48.008;13.666;2022-10-31T13:41:59;17.40;99.90
59025;DHT22;44806;48.008;13.666;2022-10-31T13:44:34;17.40;99.90
59025;DHT22;44806;48.008;13.666;2022-10-31T13:47:26;17.40;99.90
59025;DHT22;44806;48.008;13.666;2022-10-31T13:50:23;17.40;99.90
59025;DHT22;44806;48.008;13.666;2022-10-31T13:52:54;17.40;99.90
59025;DHT22;44806;48.008;13.666;2022-10-31T13:55:50;17.40;99.90
59025;DHT22;44806;48.008;13.666;2022-10-31T13:58:35;17.40;99.90
59025;DHT22;44806;48.008;13.666;2022-10-31T14:01:17;17.40;99.90
59025;DHT22;44806;48.008;13.666;2022-10-31T14:04:01;17.50;99.90
59025;DHT22;44806;48.008;13.666;2022-10-31T14:06:41;17.40;99.90
59025;DHT22;44806;48.008;13.666;2022-10-31T14:09:28;17.40;99.90
59025;DHT22;44806;48.008;13.666;2022-10-31T14:12:07;17.40;99.90
59025;DHT22;44806;48.008;13.666;2022-10-31T14:14:50;17.40;99.90
59025;DHT22;44806;48.008;13.666;2022-10-31T14:17:31;17.30;99.90
59025;DHT22;44806;48.008;13.666;2022-10-31T14:23:37;17.30;99.90
59025;DHT22;44806;48.008;13.666;2022-10-31T14:26:39;17.20;99.90
59025;DHT22;44806;48.008;13.666;2022-10-31T14:29:38;17.20;99.90
59025;DHT22;44806;48.008;13.666;2022-10-31T14:32:22;17.10;99.90
59025;DHT22;44806;48.008;13.666;2022-10-31T14:35:03;17.10;99.90
59025;DHT22;44806;48.008;13.666;2022-10-31T14:40:47;16.90;99.90
59025;DHT22;44806;48.008;13.666;2022-10-31T14:43:43;16.90;99.90
59025;DHT22;44806;48.008;13.666;2022-10-31T14:46:22;16.80;99.90
59025;DHT22;44806;48.008;13.666;2022-10-31T14:49:24;16.80;99.90
59025;DHT22;44806;48.008;13.666;2022-10-31T14:52:07;16.70;99.90
59025;DHT22;44806;48.008;13.666;2022-10-31T14:54:45;16.70;99.90
59025;DHT22;44806;48.008;13.666;2022-10-31T14:57:22;16.60;99.90
59025;DHT22;44806;48.008;13.666;2022-10-31T15:00:00;16.60;99.90
59025;DHT22;44806;48.008;13.666;2022-10-31T15:02:46;16.60;99.90
59025;DHT22;44806;48.008;13.666;2022-10-31T15:05:21;16.50;99.90
59025;DHT22;44806;48.008;13.666;2022-10-31T15:07:55;16.50;99.90
59025;DHT22;44806;48.008;13.666;2022-10-31T15:10:31;16.50;99.90
59025;DHT22;44806;48.008;13.666;2022-10-31T15:13:15;16.50;99.90
59025;DHT22;44806;48.008;13.666;2022-10-31T15:15:53;16.40;99.90
59025;DHT22;44806;48.008;13.666;2022-10-31T15:18:28;16.40;99.90
59025;DHT22;44806;48.008;13.666;2022-10-31T15:21:01;16.30;99.90
59025;DHT22;44806;48.008;13.666;2022-10-31T15:53:49;15.70;99.90
59025;DHT22;44806;48.008;13.666;2022-10-31T15:56:26;15.60;99.90
59025;DHT22;44806;48.008;13.666;2022-10-31T15:59:03;15.60;99.90
59025;DHT22;44806;48.008;13.666;2022-10-31T16:01:32;15.60;99.90
59025;DHT22;44806;48.008;13.666;2022-10-31T16:04:24;15.50;99.90
59025;DHT22;44806;48.008;13.666;2022-10-31T16:07:17;15.40;99.90
59025;DHT22;44806;48.008;13.666;2022-10-31T16:09:58;15.30;99.90
59025;DHT22;44806;48.008;13.666;2022-10-31T16:12:42;15.30;99.90
59025;DHT22;44806;48.008;13.666;2022-10-31T16:15:17;15.30;99.90
59025;DHT22;44806;48.008;13.666;2022-10-31T16:17:53;15.20;99.90
59025;DHT22;44806;48.008;13.666;2022-10-31T16:20:29;15.20;99.90
59025;DHT22;44806;48.008;13.666;2022-10-31T16:23:17;15.20;99.90
59025;DHT22;44806;48.008;13.666;2022-10-31T16:25:55;15.10;99.90
59025;DHT22;44806;48.008;13.666;2022-10-31T16:28:31;15.00;99.90
59025;DHT22;44806;48.008;13.666;2022-10-31T16:31:11;15.00;99.90
59025;DHT22;44806;48.008;13.666;2022-10-31T16:33:46;15.00;99.90
59025;DHT22;44806;48.008;13.666;2022-10-31T16:36:37;15.00;99.90
59025;DHT22;44806;48.008;13.666;2022-10-31T16:39:09;15.00;99.90
59025;DHT22;44806;48.008;13.666;2022-10-31T16:41:45;15.00;99.90
59025;DHT22;44806;48.008;13.666;2022-10-31T16:44:29;15.00;99.90
59025;DHT22;44806;48.008;13.666;2022-10-31T16:47:12;14.90;99.90
59025;DHT22;44806;48.008;13.666;2022-10-31T16:49:50;14.90;99.90
59025;DHT22;44806;48.008;13.666;2022-10-31T16:52:22;14.90;99.90
59025;DHT22;44806;48.008;13.666;2022-10-31T16:54:56;14.90;99.90
59025;DHT22;44806;48.008;13.666;2022-10-31T16:57:33;14.90;99.90
59025;DHT22;44806;48.008;13.666;2022-10-31T17:00:09;14.80;99.90
59025;DHT22;44806;48.008;13.666;2022-10-31T17:02:44;14.80;99.90
59025;DHT22;44806;48.008;13.666;2022-10-31T17:05:20;14.70;99.90
59025;DHT22;44806;48.008;13.666;2022-10-31T17:07:51;14.70;99.90
59025;DHT22;44806;48.008;13.666;2022-10-31T17:10:24;14.70;99.90
59025;DHT22;44806;48.008;13.666;2022-10-31T17:12:55;14.70;99.90
59025;DHT22;44806;48.008;13.666;2022-10-31T17:15:41;14.70;99.90
59025;DHT22;44806;48.008;13.666;2022-10-31T17:18:22;14.70;99.90
59025;DHT22;44806;48.008;13.666;2022-10-31T17:20:55;14.60;99.90
59025;DHT22;44806;48.008;13.666;2022-10-31T17:23:40;14.60;99.90
59025;DHT22;44806;48.008;13.666;2022-10-31T17:26:14;14.60;99.90
59025;DHT22;44806;48.008;13.666;2022-10-31T17:29:00;14.60;99.90
59025;DHT22;44806;48.008;13.666;2022-10-31T17:31:39;14.50;99.90
59025;DHT22;44806;48.008;13.666;2022-10-31T17:34:20;14.50;99.90
59025;DHT22;44806;48.008;13.666;2022-10-31T17:36:58;14.50;99.90
59025;DHT22;44806;48.008;13.666;2022-10-31T17:39:34;14.50;99.90
59025;DHT22;44806;48.008;13.666;2022-10-31T17:42:08;14.40;99.90
59025;DHT22;44806;48.008;13.666;2022-10-31T17:44:43;14.40;99.90
59025;DHT22;44806;48.008;13.666;2022-10-31T17:47:20;14.40;99.90
59025;DHT22;44806;48.008;13.666;2022-10-31T17:50:01;14.40;99.90
59025;DHT22;44806;48.008;13.666;2022-10-31T17:52:36;14.30;99.90
59025;DHT22;44806;48.008;13.666;2022-10-31T17:55:11;14.30;99.90
59025;DHT22;44806;48.008;13.666;2022-10-31T17:57:58;14.30;99.90
59025;DHT22;44806;48.008;13.666;2022-10-31T18:00:29;14.30;99.90
59025;DHT22;44806;48.008;13.666;2022-10-31T18:03:00;14.30;99.90
59025;DHT22;44806;48.008;13.666;2022-10-31T18:05:30;14.30;99.90
59025;DHT22;44806;48.008;13.666;2022-10-31T18:07:57;14.20;99.90
59025;DHT22;44806;48.008;13.666;2022-10-31T18:10:24;14.20;99.90
59025;DHT22;44806;48.008;13.666;2022-10-31T18:12:51;14.20;99.90
59025;DHT22;44806;48.008;13.666;2022-10-31T18:15:21;14.20;99.90
59025;DHT22;44806;48.008;13.666;2022-10-31T18:17:53;14.20;99.90
59025;DHT22;44806;48.008;13.666;2022-10-31T18:20:20;14.10;99.90
59025;DHT22;44806;48.008;13.666;2022-10-31T18:22:49;14.10;99.90
59025;DHT22;44806;48.008;13.666;2022-10-31T18:25:18;14.00;99.90
59025;DHT22;44806;48.008;13.666;2022-10-31T18:27:45;14.00;99.90
59025;DHT22;44806;48.008;13.666;2022-10-31T18:30:12;14.00;99.90
59025;DHT22;44806;48.008;13.666;2022-10-31T18:32:42;14.00;99.90